createdAt,value
2018-09-10T00:01:24.533Z,2.30
2018-09-10T00:03:57.515Z,2.80
2018-09-10T00:06:30.111Z,1.90
2018-09-10T00:09:03.549Z,4.03
2018-09-10T00:11:36.868Z,2.00
2018-09-10T00:14:10.144Z,3.43
2018-09-10T00:16:42.692Z,1.87
2018-09-10T00:19:15.596Z,3.47
2018-09-10T00:21:48.244Z,1.47
2018-09-10T00:24:20.756Z,4.33
2018-09-10T00:26:53.568Z,2.30
2018-09-10T00:29:26.199Z,1.90
2018-09-10T00:31:58.700Z,4.23
2018-09-10T00:34:33.736Z,3.97
2018-09-10T00:37:07.979Z,2.97
2018-09-10T00:39:40.528Z,2.10
2018-09-10T00:42:13.347Z,2.33
2018-09-10T00:44:46.372Z,4.60
2018-09-10T00:47:18.853Z,1.27
2018-09-10T00:49:52.679Z,3.20
2018-09-10T00:52:25.358Z,1.87
2018-09-10T00:54:58.683Z,2.00
2018-09-10T00:57:32.664Z,1.85
2018-09-10T01:00:07.635Z,1.50
2018-09-10T01:02:42.277Z,2.73
2018-09-10T01:05:16.840Z,2.17
2018-09-10T01:07:49.340Z,2.47
2018-09-10T01:10:21.874Z,3.67
2018-09-10T01:12:55.699Z,2.97
2018-09-10T01:15:28.328Z,1.60
2018-09-10T01:18:01.139Z,1.43
2018-09-10T01:20:35.111Z,1.90
2018-09-10T01:23:07.704Z,1.60
2018-09-10T01:25:40.476Z,2.17
2018-09-10T01:28:13.449Z,2.07
2018-09-10T01:30:45.972Z,2.92
2018-09-10T01:33:24.392Z,1.77
2018-09-10T01:35:56.917Z,3.37
2018-09-10T01:38:29.536Z,3.00
2018-09-10T01:41:02.063Z,1.73
2018-09-10T01:43:36.459Z,1.60
2018-09-10T01:46:09.908Z,3.30
2018-09-10T01:48:43.636Z,2.37
2018-09-10T01:51:17.135Z,1.63
2018-09-10T01:53:49.929Z,3.87
2018-09-10T01:56:22.476Z,3.50
2018-09-10T01:58:55.276Z,1.40
2018-09-10T02:01:27.815Z,1.80
2018-09-10T02:04:00.645Z,1.90
2018-09-10T02:06:34.605Z,2.20
2018-09-10T02:09:09.395Z,3.53
2018-09-10T02:11:42.064Z,3.67
2018-09-10T02:14:14.988Z,1.97
2018-09-10T02:16:47.574Z,2.93
2018-09-10T02:19:21.292Z,1.50
2018-09-10T02:21:54.236Z,3.03
2018-09-10T02:24:26.777Z,3.37
2018-09-10T02:26:59.281Z,2.67
2018-09-10T02:29:32.203Z,1.73
2018-09-10T02:32:05.361Z,2.17
2018-09-10T02:34:37.792Z,2.27
2018-09-10T02:37:11.551Z,3.30
2018-09-10T02:39:44.642Z,2.77
2018-09-10T02:42:17.484Z,3.07
2018-09-10T02:44:50.268Z,2.22
2018-09-10T02:47:22.900Z,3.73
2018-09-10T02:49:55.610Z,2.20
2018-09-10T02:52:29.544Z,2.03
2018-09-10T02:55:02.015Z,1.77
2018-09-10T02:57:34.579Z,3.97
2018-09-10T03:00:14.177Z,3.33
2018-09-10T03:02:46.928Z,3.10
2018-09-10T03:05:19.557Z,4.90
2018-09-10T03:07:52.475Z,2.10
2018-09-10T03:10:24.844Z,2.93
2018-09-10T03:12:57.419Z,2.12
2018-09-10T03:15:31.260Z,5.47
2018-09-10T03:18:03.936Z,2.07
2018-09-10T03:20:36.366Z,2.77
2018-09-10T03:23:10.532Z,4.43
2018-09-10T03:25:43.181Z,4.00
2018-09-10T03:28:15.773Z,2.03
2018-09-10T03:30:51.785Z,2.27
2018-09-10T03:33:24.441Z,2.97
2018-09-10T03:35:56.829Z,2.13
2018-09-10T03:38:29.820Z,2.50
2018-09-10T03:41:02.736Z,2.90
2018-09-10T03:43:35.323Z,2.40
2018-09-10T03:46:08.041Z,2.67
2018-09-10T03:48:40.692Z,2.63
2018-09-10T03:51:13.170Z,2.23
2018-09-10T03:53:47.302Z,2.77
2018-09-10T03:56:19.809Z,4.70
2018-09-10T03:58:52.553Z,3.60
2018-09-10T04:01:25.425Z,2.27
2018-09-10T04:03:58.033Z,3.87
2018-09-10T04:06:30.604Z,2.63
2018-09-10T04:09:06.238Z,1.90
2018-09-10T04:11:38.801Z,3.40
2018-09-10T04:14:13.572Z,2.43
2018-09-10T04:16:46.415Z,4.17
2018-09-10T04:19:19.540Z,1.63
2018-09-10T04:21:52.192Z,4.23
2018-09-10T04:24:26.328Z,1.90
2018-09-10T04:26:58.986Z,2.87
2018-09-10T04:29:31.757Z,5.37
2018-09-10T04:32:05.941Z,4.63
2018-09-10T04:34:38.389Z,4.73
2018-09-10T04:37:11.258Z,4.30
2018-09-10T04:39:46.417Z,3.23
2018-09-10T04:42:19.172Z,4.90
2018-09-10T04:44:51.616Z,4.80
2018-09-10T04:47:28.456Z,5.40
2018-09-10T04:50:01.536Z,4.50
2018-09-10T04:52:34.097Z,3.30
2018-09-10T04:55:07.005Z,5.62
2018-09-10T04:57:39.641Z,5.50
2018-09-10T05:00:13.852Z,3.80
2018-09-10T05:02:51.034Z,3.17
2018-09-10T05:05:24.257Z,4.10
2018-09-10T05:07:57.027Z,3.40
2018-09-10T05:10:30.404Z,3.97
2018-09-10T05:13:03.152Z,4.10
2018-09-10T05:15:35.686Z,3.63
2018-09-10T05:18:08.596Z,5.37
2018-09-10T05:20:42.925Z,5.77
2018-09-10T05:23:18.063Z,5.87
2018-09-10T05:25:54.042Z,3.30
2018-09-10T05:28:26.680Z,7.13
2018-09-10T05:31:02.155Z,4.00
2018-09-10T05:33:34.629Z,6.20
2018-09-10T05:36:07.530Z,4.50
2018-09-10T05:38:40.121Z,8.33
2018-09-10T05:41:12.705Z,5.17
2018-09-10T05:43:47.364Z,5.17
2018-09-10T05:46:20.141Z,5.40
2018-09-10T05:48:52.700Z,6.70
2018-09-10T05:51:25.349Z,7.93
2018-09-10T05:53:59.094Z,7.13
2018-09-10T05:56:31.654Z,5.80
2018-09-10T05:59:04.419Z,5.93
2018-09-10T06:01:37.913Z,4.70
2018-09-10T06:04:11.436Z,7.37
2018-09-10T06:06:45.492Z,5.62
2018-09-10T06:09:18.692Z,5.17
2018-09-10T06:11:52.245Z,8.03
2018-09-10T06:14:28.465Z,5.80
2018-09-10T06:17:02.081Z,9.43
2018-09-10T06:19:34.925Z,5.00
2018-09-10T06:22:08.475Z,6.15
2018-09-10T06:24:41.141Z,8.97
2018-09-10T06:27:15.260Z,7.30
2018-09-10T06:29:48.697Z,7.90
2018-09-10T06:32:23.306Z,6.03
2018-09-10T06:34:55.930Z,8.00
2018-09-10T06:37:29.214Z,9.32
2018-09-10T06:40:05.988Z,13.57
2018-09-10T06:42:40.214Z,8.60
2018-09-10T06:45:15.822Z,11.95
2018-09-10T06:47:48.480Z,12.80
2018-09-10T06:50:21.136Z,13.43
2018-09-10T06:52:53.621Z,12.43
2018-09-10T06:55:26.669Z,15.30
2018-09-10T06:57:59.244Z,13.10
2018-09-10T07:00:31.789Z,10.87
2018-09-10T07:03:05.152Z,12.10
2018-09-10T07:05:37.756Z,13.52
2018-09-10T07:08:10.381Z,14.47
2018-09-10T07:10:43.742Z,12.43
2018-09-10T07:13:16.938Z,15.60
2018-09-10T07:15:49.536Z,16.83
2018-09-10T07:18:25.037Z,13.00
2018-09-10T07:20:57.572Z,11.70
2018-09-10T07:23:30.085Z,14.30
2018-09-10T07:26:04.948Z,12.97
2018-09-10T07:28:38.048Z,11.10
2018-09-10T07:31:10.765Z,14.47
2018-09-10T07:33:43.716Z,11.93
2018-09-10T07:36:20.976Z,10.88
2018-09-10T07:38:55.327Z,9.60
2018-09-10T07:41:29.412Z,12.30
2018-09-10T07:44:04.105Z,12.83
2018-09-10T07:46:38.289Z,9.97
2018-09-10T07:49:11.885Z,11.57
2018-09-10T07:51:45.256Z,11.10
2018-09-10T07:54:18.489Z,10.67
2018-09-10T07:56:53.492Z,12.63
2018-09-10T07:59:29.190Z,12.65
2018-09-10T08:02:01.761Z,9.30
2018-09-10T08:04:40.380Z,16.03
2018-09-10T08:07:14.123Z,12.45
2018-09-10T08:09:46.860Z,11.17
2018-09-10T08:12:19.422Z,9.53
2018-09-10T08:14:53.894Z,11.53
2018-09-10T08:17:27.802Z,15.97
2018-09-10T08:20:01.789Z,14.00
2018-09-10T08:22:35.616Z,11.87
2018-09-10T08:25:10.636Z,19.43
2018-09-10T08:27:43.076Z,14.17
2018-09-10T08:30:16.318Z,18.33
2018-09-10T08:32:50.062Z,18.13
2018-09-10T08:35:25.357Z,21.97
2018-09-10T08:37:58.835Z,22.63
2018-09-10T08:40:33.432Z,21.00
2018-09-10T08:43:07.652Z,21.10
2018-09-10T08:45:40.747Z,26.43
2018-09-10T08:48:16.337Z,24.93
2018-09-10T08:50:50.624Z,19.87
2018-09-10T08:53:24.195Z,21.73
2018-09-10T08:55:59.656Z,17.40
2018-09-10T08:58:31.849Z,17.87
2018-09-10T09:01:05.406Z,19.47
2018-09-10T09:03:40.090Z,19.80
2018-09-10T09:06:12.730Z,21.90
2018-09-10T09:08:46.614Z,18.43
2018-09-10T09:11:19.317Z,20.60
2018-09-10T09:13:52.026Z,20.23
2018-09-10T09:16:25.665Z,17.90
2018-09-10T09:19:02.208Z,16.23
2018-09-10T09:21:36.089Z,13.27
2018-09-10T09:24:13.421Z,18.20
2018-09-10T09:26:47.789Z,16.63
2018-09-10T09:29:23.680Z,16.53
2018-09-10T09:31:59.953Z,14.53
2018-09-10T09:34:38.005Z,13.70
2018-09-10T09:37:16.433Z,14.70
2018-09-10T09:39:54.641Z,16.80
2018-09-10T09:42:33.697Z,11.53
2018-09-10T09:45:12.944Z,14.43
2018-09-10T09:47:49.990Z,15.68
2018-09-10T09:50:23.584Z,12.80
2018-09-10T09:52:59.022Z,18.17
2018-09-10T09:55:32.027Z,16.57
2018-09-10T09:58:07.184Z,11.17
2018-09-10T10:00:46.301Z,13.93
2018-09-10T10:03:25.900Z,15.83
2018-09-10T10:05:58.494Z,14.15
2018-09-10T10:08:32.335Z,15.60
2018-09-10T10:11:08.139Z,15.53
2018-09-10T10:13:42.197Z,10.40
2018-09-10T10:16:15.421Z,11.15
2018-09-10T10:18:49.648Z,11.27
2018-09-10T10:21:23.300Z,14.37
2018-09-10T10:23:57.904Z,15.33
2018-09-10T10:26:30.461Z,9.77
2018-09-10T10:29:02.996Z,10.33
2018-09-10T10:31:36.649Z,14.20
2018-09-10T10:34:13.886Z,12.35
2018-09-10T10:36:46.488Z,12.13
2018-09-10T10:39:21.373Z,14.07
2018-09-10T10:41:56.094Z,12.10
2018-09-10T10:44:28.689Z,8.67
2018-09-10T10:47:05.358Z,10.53
2018-09-10T10:49:41.628Z,8.27
2018-09-10T10:52:15.482Z,12.73
2018-09-10T10:54:48.816Z,11.20
2018-09-10T10:57:22.529Z,11.33
2018-09-10T10:59:58.072Z,10.17
2018-09-10T11:02:32.573Z,8.03
2018-09-10T11:05:06.481Z,7.67
2018-09-10T11:07:39.144Z,9.80
2018-09-10T11:10:13.908Z,9.10
2018-09-10T11:12:47.431Z,11.00
2018-09-10T11:15:20.164Z,7.63
2018-09-10T11:17:53.972Z,8.47
2018-09-10T11:20:26.864Z,5.03
2018-09-10T11:23:00.514Z,7.10
2018-09-10T11:25:39.725Z,11.67
2018-09-10T11:28:13.294Z,8.97
2018-09-10T11:30:48.082Z,8.37
2018-09-10T11:33:24.692Z,8.37
2018-09-10T11:36:03.355Z,8.63
2018-09-10T11:38:37.312Z,8.50
2018-09-10T11:41:11.837Z,8.90
2018-09-10T11:43:46.135Z,9.83
2018-09-10T11:46:19.521Z,7.87
2018-09-10T11:49:01.492Z,9.90
2018-09-10T11:51:34.516Z,8.47
2018-09-10T11:54:08.440Z,7.62
2018-09-10T11:56:42.905Z,8.87
2018-09-10T11:59:16.385Z,7.23
2018-09-10T12:01:51.002Z,7.00
2018-09-10T12:04:25.250Z,7.35
2018-09-10T12:06:57.765Z,7.70
2018-09-10T12:09:32.720Z,5.77
2018-09-10T12:12:07.280Z,7.40
2018-09-10T12:14:43.413Z,6.20
2018-09-10T12:17:18.100Z,6.67
2018-09-10T12:19:51.496Z,4.90
2018-09-10T12:22:26.678Z,6.70
2018-09-10T12:25:00.800Z,7.13
2018-09-10T12:27:36.257Z,6.60
2018-09-10T12:30:12.356Z,9.07
2018-09-10T12:32:44.988Z,7.90
2018-09-10T12:35:19.866Z,7.00
2018-09-10T12:37:54.532Z,4.20
2018-09-10T12:40:28.026Z,5.93
2018-09-10T12:43:01.512Z,3.70
2018-09-10T12:45:37.693Z,5.70
2018-09-10T12:48:12.627Z,5.20
2018-09-10T12:50:45.663Z,4.80
2018-09-10T12:53:20.429Z,8.47
2018-09-10T12:55:53.020Z,8.27
2018-09-10T12:58:26.828Z,6.80
2018-09-10T13:01:00.071Z,10.63
2018-09-10T13:03:33.548Z,7.32
2018-09-10T13:06:06.429Z,4.37
2018-09-10T13:08:40.561Z,4.27
2018-09-10T13:11:15.460Z,4.43
2018-09-10T13:13:49.054Z,5.80
2018-09-10T13:16:22.319Z,4.40
2018-09-10T13:18:54.868Z,5.40
2018-09-10T13:21:28.844Z,3.90
2018-09-10T13:24:02.225Z,4.63
2018-09-10T13:26:34.963Z,5.03
2018-09-10T13:29:08.190Z,8.47
2018-09-10T13:31:41.036Z,6.07
2018-09-10T13:34:14.712Z,5.67
2018-09-10T13:36:50.372Z,5.20
2018-09-10T13:39:23.575Z,4.33
2018-09-10T13:41:56.324Z,6.43
2018-09-10T13:44:32.203Z,4.53
2018-09-10T13:47:06.144Z,5.73
2018-09-10T13:49:40.647Z,6.97
2018-09-10T13:52:15.336Z,4.82
2018-09-10T13:54:49.324Z,5.70
2018-09-10T13:57:22.356Z,3.70
2018-09-10T13:59:58.968Z,3.33
2018-09-10T14:02:41.376Z,6.00
2018-09-10T14:05:19.742Z,4.20
2018-09-10T14:07:54.364Z,4.10
2018-09-10T14:10:27.380Z,4.47
2018-09-10T14:13:01.123Z,7.87
2018-09-10T14:15:34.181Z,4.67
2018-09-10T14:18:07.409Z,2.90
2018-09-10T14:20:47.652Z,4.90
2018-09-10T14:23:22.985Z,4.53
2018-09-10T14:25:55.806Z,7.40
2018-09-10T14:28:29.679Z,7.30
2018-09-10T14:31:02.309Z,4.67
2018-09-10T14:33:35.768Z,6.07
2018-09-10T14:36:11.445Z,5.43
2018-09-10T14:38:46.796Z,6.83
2018-09-10T14:41:20.424Z,7.10
2018-09-10T14:43:53.839Z,4.33
2018-09-10T14:46:29.465Z,6.70
2018-09-10T14:49:02.077Z,6.13
2018-09-10T14:51:35.204Z,5.27
2018-09-10T14:54:09.276Z,5.63
2018-09-10T14:56:43.447Z,9.75
2018-09-10T14:59:20.108Z,7.13
2018-09-10T15:01:53.941Z,5.60
2018-09-10T15:04:29.229Z,3.67
2018-09-10T15:07:02.035Z,7.77
2018-09-10T15:09:37.778Z,5.73
2018-09-10T15:12:10.713Z,5.60
2018-09-10T15:14:43.273Z,5.90
2018-09-10T15:17:21.556Z,8.60
2018-09-10T15:19:54.724Z,4.85
2018-09-10T15:22:29.523Z,5.47
2018-09-10T15:25:04.832Z,6.23
2018-09-10T15:27:41.843Z,4.43
2018-09-10T15:30:17.115Z,6.27
2018-09-10T15:32:51.500Z,4.25
2018-09-10T15:35:24.314Z,4.62
2018-09-10T15:37:58.849Z,3.37
2018-09-10T15:40:34.519Z,6.40
2018-09-10T15:43:07.137Z,4.80
2018-09-10T15:45:41.685Z,3.73
2018-09-10T15:48:16.473Z,4.43
2018-09-10T15:50:49.393Z,6.07
2018-09-10T15:53:23.540Z,5.60
2018-09-10T15:55:57.684Z,4.00
2018-09-10T15:58:30.844Z,5.27
2018-09-10T16:01:05.816Z,6.00
2018-09-10T16:03:39.497Z,6.57
2018-09-10T16:06:12.074Z,8.37
2018-09-10T16:08:47.082Z,6.00
2018-09-10T16:11:19.727Z,6.80
2018-09-10T16:13:52.779Z,5.20
2018-09-10T16:16:29.296Z,9.80
2018-09-10T16:19:03.336Z,5.80
2018-09-10T16:21:38.220Z,6.75
2018-09-10T16:24:11.881Z,5.47
2018-09-10T16:26:44.580Z,3.90
2018-09-10T16:29:20.072Z,4.70
2018-09-10T16:32:01.736Z,4.47
2018-09-10T16:34:35.298Z,6.43
2018-09-10T16:37:10.368Z,6.23
2018-09-10T16:39:43.785Z,6.30
2018-09-10T16:42:16.822Z,6.57
2018-09-10T16:44:50.852Z,5.73
2018-09-10T16:47:26.648Z,4.60
2018-09-10T16:50:00.641Z,2.97
2018-09-10T16:52:35.536Z,6.63
2018-09-10T16:55:09.886Z,7.17
2018-09-10T16:57:44.239Z,4.80
2018-09-10T17:00:17.625Z,4.37
2018-09-10T17:02:54.078Z,6.23
2018-09-10T17:05:28.103Z,6.30
2018-09-10T17:08:02.441Z,4.10
2018-09-10T17:10:36.074Z,5.93
2018-09-10T17:13:08.630Z,5.80
2018-09-10T17:15:42.409Z,5.47
2018-09-10T17:18:15.574Z,5.17
2018-09-10T17:20:50.995Z,5.03
2018-09-10T17:23:23.612Z,5.23
2018-09-10T17:25:58.966Z,6.70
2018-09-10T17:28:35.024Z,8.07
2018-09-10T17:31:07.756Z,6.57
2018-09-10T17:33:40.345Z,5.43
2018-09-10T17:36:16.286Z,6.93
2018-09-10T17:38:49.033Z,4.50
2018-09-10T17:41:24.514Z,12.13
2018-09-10T17:44:00.578Z,6.77
2018-09-10T17:46:36.619Z,4.13
2018-09-10T17:49:10.649Z,6.72
2018-09-10T17:51:45.440Z,6.30
2018-09-10T17:54:20.173Z,5.83
2018-09-10T17:56:53.407Z,7.77
2018-09-10T17:59:29.361Z,3.93
2018-09-10T18:02:04.858Z,5.10
2018-09-10T18:04:37.645Z,5.63
2018-09-10T18:07:10.355Z,4.13
2018-09-10T18:09:43.756Z,6.40
2018-09-10T18:12:18.665Z,6.50
2018-09-10T18:14:51.676Z,8.27
2018-09-10T18:17:33.780Z,6.10
2018-09-10T18:20:17.614Z,3.67
2018-09-10T18:22:54.532Z,4.13
2018-09-10T18:25:30.936Z,6.30
2018-09-10T18:28:07.392Z,6.23
2018-09-10T18:30:42.560Z,7.63
2018-09-10T18:33:20.267Z,7.33
2018-09-10T18:35:55.955Z,6.93
2018-09-10T18:38:29.543Z,5.10
2018-09-10T18:41:04.371Z,7.63
2018-09-10T18:43:40.352Z,6.33
2018-09-10T18:46:15.518Z,7.63
2018-09-10T18:48:51.679Z,5.13
2018-09-10T18:51:27.901Z,4.50
2018-09-10T18:54:02.477Z,6.30
2018-09-10T18:56:38.671Z,7.53
2018-09-10T18:59:14.716Z,5.70
2018-09-10T19:01:49.507Z,5.87
2018-09-10T19:04:31.765Z,4.83
2018-09-10T19:07:10.670Z,9.07
2018-09-10T19:09:43.515Z,8.33
2018-09-10T19:12:17.357Z,12.30
2018-09-10T19:14:51.307Z,9.77
2018-09-10T19:17:24.565Z,8.50
2018-09-10T19:19:58.633Z,9.37
2018-09-10T19:22:39.458Z,11.23
2018-09-10T19:25:15.696Z,10.83
2018-09-10T19:27:50.406Z,9.57
2018-09-10T19:30:23.136Z,10.40
2018-09-10T19:33:02.047Z,9.83
2018-09-10T19:35:37.029Z,5.97
2018-09-10T19:38:19.533Z,10.63
2018-09-10T19:40:56.579Z,10.00
2018-09-10T19:43:33.899Z,8.67
2018-09-10T19:46:11.354Z,7.03
2018-09-10T19:48:45.669Z,9.97
2018-09-10T19:51:20.817Z,10.03
2018-09-10T19:53:59.148Z,7.13
2018-09-10T19:56:33.662Z,11.23
2018-09-10T19:59:07.794Z,9.80
2018-09-10T20:01:45.775Z,8.70
2018-09-10T20:04:20.823Z,8.83
2018-09-10T20:06:55.473Z,10.63
2018-09-10T20:09:33.797Z,12.60
2018-09-10T20:12:07.871Z,9.47
2018-09-10T20:14:45.018Z,10.27
2018-09-10T20:17:20.896Z,11.47
2018-09-10T20:19:59.588Z,7.95
2018-09-10T20:22:33.624Z,8.13
2018-09-10T20:25:09.487Z,9.30
2018-09-10T20:27:42.157Z,6.37
2018-09-10T20:30:17.779Z,10.27
2018-09-10T20:32:50.353Z,9.23
2018-09-10T20:35:25.657Z,11.60
2018-09-10T20:38:02.415Z,10.40
2018-09-10T20:40:35.975Z,11.60
2018-09-10T20:43:09.449Z,11.00
2018-09-10T20:45:43.604Z,14.70
2018-09-10T20:48:17.042Z,7.97
2018-09-10T20:50:54.462Z,8.63
2018-09-10T20:53:36.805Z,10.00
2018-09-10T20:56:10.778Z,12.53
2018-09-10T20:58:48.383Z,10.93
2018-09-10T21:01:25.560Z,8.57
2018-09-10T21:04:00.468Z,7.17
2018-09-10T21:06:35.725Z,8.02
2018-09-10T21:09:10.415Z,8.27
2018-09-10T21:11:43.016Z,9.37
2018-09-10T21:14:15.826Z,10.67
2018-09-10T21:16:50.601Z,7.93
2018-09-10T21:19:24.184Z,9.90
2018-09-10T21:21:57.324Z,7.30
2018-09-10T21:24:32.816Z,9.57
2018-09-10T21:27:06.147Z,8.15
2018-09-10T21:29:46.404Z,8.17
2018-09-10T21:32:23.504Z,9.73
2018-09-10T21:34:58.612Z,7.67
2018-09-10T21:37:34.000Z,6.83
2018-09-10T21:40:08.691Z,8.07
2018-09-10T21:42:42.297Z,10.00
2018-09-10T21:45:17.341Z,8.87
2018-09-10T21:47:49.923Z,8.97
2018-09-10T21:50:22.864Z,8.90
2018-09-10T21:52:56.046Z,8.07
2018-09-10T21:55:30.630Z,9.87
2018-09-10T21:58:03.269Z,8.90
2018-09-10T22:00:52.950Z,11.13
2018-09-10T22:03:27.356Z,9.90
2018-09-10T22:06:01.564Z,8.37
2018-09-10T22:08:35.639Z,10.03
2018-09-10T22:11:09.124Z,9.90
2018-09-10T22:13:42.291Z,12.97
2018-09-10T22:16:15.714Z,12.10
2018-09-10T22:18:48.321Z,10.73
2018-09-10T22:21:21.303Z,9.23
2018-09-10T22:23:55.073Z,10.90
2018-09-10T22:26:27.655Z,8.80
2018-09-10T22:29:02.009Z,9.37
2018-09-10T22:31:37.351Z,9.13
2018-09-10T22:34:14.073Z,6.97
2018-09-10T22:36:49.053Z,8.07
2018-09-10T22:39:24.889Z,11.37
2018-09-10T22:41:57.515Z,8.45
2018-09-10T22:44:31.049Z,6.67
2018-09-10T22:47:04.242Z,7.68
2018-09-10T22:49:38.029Z,8.40
2018-09-10T22:52:10.611Z,5.63
2018-09-10T22:54:43.608Z,8.30
2018-09-10T22:57:16.416Z,9.27
2018-09-10T22:59:50.185Z,9.37
2018-09-10T23:02:24.385Z,7.57
2018-09-10T23:05:00.720Z,7.60
2018-09-10T23:07:33.327Z,11.03
2018-09-10T23:10:08.796Z,5.40
2018-09-10T23:12:43.485Z,8.17
2018-09-10T23:15:20.240Z,12.37
2018-09-10T23:17:56.074Z,8.63
2018-09-10T23:20:28.605Z,7.93
2018-09-10T23:23:04.064Z,8.67
2018-09-10T23:25:37.550Z,9.63
2018-09-10T23:28:10.069Z,7.20
2018-09-10T23:30:44.456Z,8.30
2018-09-10T23:33:17.052Z,8.87
2018-09-10T23:35:50.537Z,10.30
2018-09-10T23:38:24.046Z,10.33
2018-09-10T23:40:57.068Z,10.70
2018-09-10T23:43:31.104Z,12.47
2018-09-10T23:46:04.148Z,10.50
2018-09-10T23:48:37.059Z,11.80
2018-09-10T23:51:09.569Z,10.97
2018-09-10T23:53:42.529Z,12.23
2018-09-10T23:56:15.109Z,14.43
2018-09-10T23:58:47.746Z,10.83
